Time;durP1;ratioP1;P1;durP2;ratioP2;P2;SDS_P1;SDS_P2;PMS_P1;PMS_P2;Temp;Humidity;BMP_temperature;BMP_pressure;BME280_temperature;BME280_humidity;BME280_pressure;Samples;Min_cycle;Max_cycle;Signal;HPM_P1;HPM_P2
2021/06/17 00:02:11;;;;;;;4.40;3.30;;;;;;;20.73;61.53;101370.28;5061813;28;20173;-72
2021/06/17 00:04:37;;;;;;;7.47;3.63;;;;;;;20.72;61.67;101379.28;5056228;28;20085;-73
2021/06/17 00:07:02;;;;;;;6.05;3.15;;;;;;;20.67;61.80;101371.91;5058559;28;20431;-71
2021/06/17 00:09:28;;;;;;;7.53;3.50;;;;;;;20.71;61.46;101362.47;5060061;28;20052;-71
2021/06/17 00:12:00;;;;;;;7.68;3.05;;;;;;;20.67;61.51;101369.25;5057118;28;20490;-71
2021/06/17 00:14:28;;;;;;;8.02;4.13;;;;;;;20.64;61.69;101366.13;5053993;28;20397;-72
2021/06/17 00:16:54;;;;;;;6.43;3.70;;;;;;;20.57;61.43;101366.91;5064231;28;20077;-74
2021/06/17 00:19:20;;;;;;;5.15;3.20;;;;;;;20.52;61.81;101368.53;5046465;28;20497;-72
2021/06/17 00:21:45;;;;;;;5.22;3.13;;;;;;;20.53;61.73;101368.31;5064493;28;20052;-73
2021/06/17 00:24:11;;;;;;;5.70;3.00;;;;;;;20.46;61.54;101353.31;5057732;28;20044;-73
2021/06/17 00:26:36;;;;;;;5.25;3.10;;;;;;;20.47;62.04;101362.94;5056896;28;20547;-72
2021/06/17 00:29:02;;;;;;;6.13;3.42;;;;;;;20.41;61.72;101360.03;5059094;28;20040;-71
2021/06/17 00:31:28;;;;;;;6.65;3.45;;;;;;;20.41;61.94;101365.38;5061923;28;20041;-73
2021/06/17 00:33:54;;;;;;;5.88;3.35;;;;;;;20.39;61.57;101361.28;5065419;28;20508;-71
2021/06/17 00:36:20;;;;;;;5.32;3.00;;;;;;;20.40;61.72;101357.59;5057169;28;20051;-72
2021/06/17 00:38:45;;;;;;;4.28;3.03;;;;;;;20.35;61.93;101370.69;5053360;28;20981;-73
2021/06/17 00:41:12;;;;;;;4.60;3.08;;;;;;;20.26;62.24;101361.19;5058521;28;20036;-72
2021/06/17 00:43:37;;;;;;;6.60;3.03;;;;;;;20.30;61.78;101368.59;5053919;28;20913;-72
2021/06/17 00:46:03;;;;;;;4.05;2.97;;;;;;;20.27;62.34;101366.34;5054587;28;20132;-73
2021/06/17 00:48:29;;;;;;;8.13;2.90;;;;;;;20.27;61.68;101365.50;5059456;28;20162;-73
2021/06/17 00:50:57;;;;;;;4.35;3.03;;;;;;;20.19;62.17;101353.16;5060885;28;20044;-72
2021/06/17 00:53:31;;;;;;;4.45;3.10;;;;;;;20.12;62.29;101360.28;5058039;28;20766;-71
2021/06/17 00:55:59;;;;;;;4.93;3.00;;;;;;;20.07;62.72;101357.38;5043650;28;20079;-72
2021/06/17 00:58:25;;;;;;;6.00;3.15;;;;;;;20.04;62.58;101369.22;5052309;28;20570;-73
2021/06/17 01:00:51;;;;;;;5.53;3.00;;;;;;;20.08;62.18;101361.69;5061627;28;20040;-74
2021/06/17 01:03:18;;;;;;;5.05;3.03;;;;;;;20.11;62.23;101359.44;5059055;28;20102;-72
2021/06/17 01:05:44;;;;;;;5.18;2.80;;;;;;;20.02;62.31;101355.28;5055478;28;20464;-73
2021/06/17 01:08:22;;;;;;;6.70;3.22;;;;;;;19.99;62.25;101361.84;5060357;28;20116;-73
2021/06/17 01:11:16;;;;;;;4.55;2.92;;;;;;;19.90;62.64;101359.50;5056827;28;20048;-72
2021/06/17 01:14:10;;;;;;;4.22;2.95;;;;;;;19.85;62.56;101357.41;5064794;28;20120;-73
2021/06/17 01:16:48;;;;;;;3.42;2.95;;;;;;;19.82;63.09;101348.00;5062220;28;20048;-73
2021/06/17 01:19:25;;;;;;;5.25;2.90;;;;;;;19.80;62.81;101357.19;5036353;28;20565;-73
2021/06/17 01:22:10;;;;;;;5.20;2.70;;;;;;;19.69;64.13;101355.03;5044463;28;20041;-73
2021/06/17 01:25:13;;;;;;;6.93;2.97;;;;;;;19.65;63.23;101351.91;5058609;28;20682;-72
2021/06/17 01:27:41;;;;;;;;;;;;;;;19.62;63.28;101344.31;5062555;28;20040;-73
2021/06/17 01:30:13;;;;;;;8.50;3.10;;;;;;;19.58;63.13;101346.53;5044706;28;19963;-73
2021/06/17 01:32:44;;;;;;;5.97;3.20;;;;;;;19.58;63.43;101340.38;5045445;28;20050;-72
2021/06/17 01:35:12;;;;;;;4.45;2.80;;;;;;;19.59;63.32;101339.34;5055943;28;20051;-72
2021/06/17 01:37:39;;;;;;;7.97;2.88;;;;;;;19.52;63.29;101333.19;5059216;28;20124;-73
2021/06/17 01:40:06;;;;;;;4.28;2.70;;;;;;;19.52;63.08;101327.84;5059364;28;20259;-72
2021/06/17 01:42:35;;;;;;;7.70;3.13;;;;;;;19.53;63.33;101329.50;5045257;28;20036;-73
2021/06/17 01:45:02;;;;;;;4.28;2.95;;;;;;;19.46;63.60;101326.78;5049390;28;20032;-72
2021/06/17 01:47:29;;;;;;;5.60;2.90;;;;;;;19.47;63.18;101328.41;5067402;28;20028;-72
2021/06/17 01:49:56;;;;;;;4.57;2.75;;;;;;;19.43;63.49;101327.97;5066066;28;20093;-72
2021/06/17 01:52:24;;;;;;;5.28;2.95;;;;;;;19.37;63.32;101334.06;5061480;28;20481;-73
2021/06/17 01:54:51;;;;;;;5.32;2.67;;;;;;;19.38;63.59;101334.88;5030048;28;20060;-73
2021/06/17 01:57:20;;;;;;;3.30;2.90;;;;;;;19.36;63.40;101336.91;5041958;28;20500;-73
2021/06/17 01:59:48;;;;;;;5.78;3.10;;;;;;;19.31;63.42;101323.34;5054261;28;20044;-73
2021/06/17 02:02:16;;;;;;;4.15;2.80;;;;;;;19.26;63.86;101329.25;5044816;28;20040;-73
2021/06/17 02:04:46;;;;;;;9.57;3.03;;;;;;;19.18;64.60;101332.03;5053106;28;20119;-73
2021/06/17 02:07:13;;;;;;;5.47;2.92;;;;;;;19.19;64.53;101328.34;5056899;28;20128;-73
2021/06/17 02:09:39;;;;;;;6.38;2.80;;;;;;;19.00;64.75;101327.94;5049146;22;20045;-78
2021/06/17 02:12:05;;;;;;;5.38;2.47;;;;;;;19.00;64.81;101327.13;4996961;28;20116;-79
2021/06/17 02:14:32;;;;;;;4.65;3.08;;;;;;;18.92;65.03;101335.22;4996275;28;20034;-79
2021/06/17 02:17:00;;;;;;;4.97;2.45;;;;;;;18.84;66.03;101331.66;5047061;28;20044;-78
2021/06/17 02:19:28;;;;;;;8.02;2.95;;;;;;;18.91;64.89;101334.41;5008699;28;20033;-79
2021/06/17 02:21:57;;;;;;;5.07;2.95;;;;;;;18.91;64.53;101334.41;5048955;28;20041;-79
2021/06/17 02:24:26;;;;;;;3.92;2.55;;;;;;;18.92;64.54;101343.19;5035872;28;20106;-77
2021/06/17 02:26:56;;;;;;;6.18;2.67;;;;;;;18.90;64.46;101329.28;5035209;28;20041;-79
2021/06/17 02:29:22;;;;;;;3.90;2.60;;;;;;;18.84;65.02;101331.66;5048102;28;20037;-79
2021/06/17 02:31:50;;;;;;;3.35;2.60;;;;;;;18.87;64.86;101330.47;5031275;28;20107;-80
2021/06/17 02:34:17;;;;;;;6.10;2.65;;;;;;;18.81;65.60;101329.38;5022377;28;20039;-80
2021/06/17 02:36:45;;;;;;;6.72;2.70;;;;;;;18.75;65.36;101326.63;5033052;28;20558;-79
2021/06/17 02:39:12;;;;;;;3.38;2.40;;;;;;;18.67;66.00;101316.94;5014791;28;20510;-79
2021/06/17 02:41:44;;;;;;;6.75;2.67;;;;;;;18.64;65.90;101325.25;5033275;28;20033;-77
2021/06/17 02:44:10;;;;;;;5.78;2.83;;;;;;;18.59;66.00;101320.50;5014412;28;20095;-78
2021/06/17 02:46:36;;;;;;;5.30;2.72;;;;;;;18.61;65.72;101317.66;4997147;28;20045;-78
2021/06/17 02:49:06;;;;;;;4.75;2.60;;;;;;;18.59;65.80;101317.84;5001308;28;20042;-79
2021/06/17 02:51:32;;;;;;;7.85;2.97;;;;;;;18.58;66.51;101315.38;5013696;28;20037;-79
2021/06/17 02:53:57;;;;;;;6.15;2.80;;;;;;;18.52;65.64;101302.84;5014126;28;20140;-79
2021/06/17 02:56:40;;;;;;;4.50;2.70;;;;;;;18.49;65.84;101310.16;5047718;28;20045;-78
2021/06/17 02:59:25;;;;;;;12.10;3.03;;;;;;;18.55;65.66;101310.44;5035666;28;20037;-78
2021/06/17 03:02:14;;;;;;;3.60;2.60;;;;;;;18.58;65.33;101307.41;5013496;28;20045;-78
2021/06/17 03:04:58;;;;;;;6.07;2.80;;;;;;;18.56;65.41;101306.78;5012320;28;20129;-78
2021/06/17 03:07:25;;;;;;;6.07;2.67;;;;;;;18.53;65.63;101305.28;5015702;28;20025;-78
2021/06/17 03:09:56;;;;;;;9.55;2.50;;;;;;;18.52;65.05;101303.66;5031236;28;20029;-77
2021/06/17 03:12:26;;;;;;;7.57;2.47;;;;;;;18.52;65.54;101306.31;5028751;28;20037;-78
2021/06/17 03:14:55;;;;;;;4.63;2.50;;;;;;;18.46;65.44;101302.56;5012799;28;20043;-78
2021/06/17 03:17:22;;;;;;;6.97;2.53;;;;;;;18.48;65.25;101305.84;5026984;28;20044;-78
2021/06/17 03:19:51;;;;;;;5.70;2.42;;;;;;;18.48;65.54;101303.19;5012396;28;20061;-80
2021/06/17 03:22:18;;;;;;;5.68;2.47;;;;;;;18.52;65.12;101300.19;5048056;28;20037;-81
2021/06/17 03:24:48;;;;;;;4.72;2.17;;;;;;;18.50;64.88;101292.41;5030781;28;20033;-78
2021/06/17 03:27:15;;;;;;;5.68;2.88;;;;;;;18.49;64.70;101290.75;5016369;28;20029;-79
2021/06/17 03:29:46;;;;;;;7.13;2.70;;;;;;;18.50;64.40;101300.38;5032084;28;20206;-79
2021/06/17 03:32:13;;;;;;;3.92;2.40;;;;;;;18.52;64.73;101308.97;5032921;28;20123;-80
2021/06/17 03:34:42;;;;;;;4.53;2.38;;;;;;;18.48;64.46;101305.84;5015623;28;20040;-79
2021/06/17 03:37:08;;;;;;;4.57;2.15;;;;;;;18.53;65.19;101307.94;5020647;28;20424;-80
2021/06/17 03:39:35;;;;;;;7.07;2.88;;;;;;;18.57;64.21;101319.03;5047922;28;20036;-79
2021/06/17 03:42:01;;;;;;;3.75;2.40;;;;;;;18.54;64.36;101317.59;5046743;28;20040;-81
2021/06/17 03:44:29;;;;;;;7.05;2.28;;;;;;;18.53;64.28;101315.91;5025341;28;20029;-79
2021/06/17 03:46:56;;;;;;;4.85;2.47;;;;;;;18.55;64.28;101316.56;5013711;28;20072;-80
2021/06/17 03:49:23;;;;;;;5.28;2.45;;;;;;;18.49;64.74;101315.47;5013630;28;20041;-81
2021/06/17 03:51:49;;;;;;;4.10;2.30;;;;;;;18.53;64.88;101304.47;5016554;28;20120;-80
2021/06/17 03:54:23;;;;;;;5.35;2.47;;;;;;;18.52;64.48;101301.00;5001208;28;20507;-79
2021/06/17 03:57:01;;;;;;;4.57;2.40;;;;;;;18.60;64.21;101308.03;5028246;28;20740;-83
2021/06/17 03:59:30;;;;;;;4.72;2.10;;;;;;;18.69;64.32;101314.91;5036868;28;20029;-77
2021/06/17 04:01:56;;;;;;;3.92;2.55;;;;;;;18.65;63.94;101305.66;5025335;28;20037;-79
2021/06/17 04:04:22;;;;;;;9.63;2.50;;;;;;;18.66;64.40;101301.97;5018980;28;20520;-78
2021/06/17 04:06:51;;;;;;;3.33;2.42;;;;;;;18.59;64.91;101290.44;5020118;28;20037;-79
2021/06/17 04:09:26;;;;;;;4.38;2.97;;;;;;;18.59;64.58;101299.25;5017722;28;20033;-79
2021/06/17 04:11:55;;;;;;;4.90;2.28;;;;;;;18.70;64.04;101295.28;5044928;28;20037;-77
2021/06/17 04:14:22;;;;;;;4.90;2.55;;;;;;;18.68;64.36;101299.97;5018675;28;20041;-80
2021/06/17 04:16:51;;;;;;;5.10;2.33;;;;;;;18.65;64.66;101305.66;5036831;28;20033;-80
2021/06/17 04:19:20;;;;;;;3.55;2.17;;;;;;;18.67;64.53;101304.47;5036136;28;20064;-79
2021/06/17 04:21:49;;;;;;;3.80;2.25;;;;;;;18.73;65.45;101302.88;5019353;28;20037;-80
2021/06/17 04:24:17;;;;;;;3.75;2.13;;;;;;;18.75;63.77;101303.53;5036642;28;20051;-79
2021/06/17 04:26:43;;;;;;;5.45;2.38;;;;;;;18.76;63.75;101291.91;5019629;28;20491;-79
2021/06/17 04:29:08;;;;;;;4.47;2.20;;;;;;;18.77;63.48;101292.72;5017254;28;20040;-78
2021/06/17 04:31:35;;;;;;;3.60;2.22;;;;;;;18.83;63.67;101295.47;5047863;28;20036;-80
2021/06/17 04:34:02;;;;;;;5.97;2.53;;;;;;;18.87;63.21;101298.56;5035973;28;20045;-81
2021/06/17 04:36:28;;;;;;;4.88;2.30;;;;;;;18.88;64.02;101300.22;5047166;28;20488;-78
2021/06/17 04:38:53;;;;;;;5.15;2.35;;;;;;;18.93;63.58;101297.84;5036753;28;20060;-81
2021/06/17 04:41:19;;;;;;;5.65;2.47;;;;;;;19.02;63.39;101298.53;5034923;28;20064;-78
2021/06/17 04:43:45;;;;;;;4.88;2.13;;;;;;;19.04;63.06;101293.84;5052877;28;20071;-80
2021/06/17 04:46:11;;;;;;;5.03;2.35;;;;;;;19.12;63.14;101300.88;5069534;28;20047;-79
2021/06/17 04:48:38;;;;;;;4.55;2.13;;;;;;;19.19;62.89;101291.97;5035126;28;20487;-79
2021/06/17 04:51:05;;;;;;;3.90;2.47;;;;;;;19.27;62.20;101283.03;5035509;28;20035;-79
2021/06/17 04:53:32;;;;;;;3.70;2.42;;;;;;;19.28;62.65;101287.31;5028923;28;20083;-79
2021/06/17 04:55:57;;;;;;;5.40;2.38;;;;;;;19.28;63.06;101284.66;5051641;28;20033;-79
2021/06/17 04:58:24;;;;;;;7.90;2.97;;;;;;;19.31;63.81;101286.09;5044582;28;20037;-80
2021/06/17 05:00:51;;;;;;;5.25;2.50;;;;;;;19.39;62.98;101286.00;5027642;28;20025;-80
2021/06/17 05:03:17;;;;;;;7.55;2.60;;;;;;;19.42;62.18;101277.63;5050990;28;20063;-78
2021/06/17 05:05:43;;;;;;;3.22;2.55;;;;;;;19.49;62.91;101281.16;5035395;28;20030;-79
2021/06/17 05:10:58;;;;;;;10.35;3.25;;;;;;;19.65;61.72;101296.03;5050864;28;20045;-79
2021/06/17 05:13:29;;;;;;;10.43;3.28;;;;;;;19.74;61.73;101296.72;5051985;28;20388;-80
2021/06/17 05:15:57;;;;;;;5.78;2.30;;;;;;;19.77;62.32;101297.16;5027105;28;20037;-81
2021/06/17 05:18:23;;;;;;;4.90;2.40;;;;;;;19.87;62.16;101293.34;5027901;28;20372;-80
2021/06/17 05:20:50;;;;;;;4.05;2.42;;;;;;;19.93;62.39;101292.56;5038225;28;20647;-79
2021/06/17 05:23:20;;;;;;;4.72;2.58;;;;;;;19.99;62.87;101302.44;5043507;28;20052;-79
2021/06/17 05:25:46;;;;;;;6.10;2.45;;;;;;;20.01;62.53;101295.91;5051283;28;20128;-79
2021/06/17 05:28:14;;;;;;;4.43;2.42;;;;;;;20.07;62.15;101291.63;5020248;28;20041;-77
2021/06/17 05:30:41;;;;;;;5.68;2.65;;;;;;;20.17;62.17;101294.78;5034650;28;20040;-81
2021/06/17 05:33:06;;;;;;;4.30;2.63;;;;;;;20.14;62.88;101294.34;5026820;28;20045;-80
2021/06/17 05:35:32;;;;;;;7.45;3.08;;;;;;;20.19;61.99;101298.06;5048669;28;20055;-82
2021/06/17 05:37:57;;;;;;;5.00;2.90;;;;;;;20.30;61.48;101301.19;5035725;28;20535;-81
2021/06/17 05:40:23;;;;;;;6.93;2.78;;;;;;;20.33;61.50;101303.47;5036640;28;20394;-80
2021/06/17 05:42:48;;;;;;;7.22;2.88;;;;;;;20.39;61.26;101308.00;5046385;28;20025;-83
2021/06/17 05:45:14;;;;;;;6.38;2.88;;;;;;;20.46;61.40;101308.03;5035090;28;20048;-80
2021/06/17 05:47:39;;;;;;;6.30;2.67;;;;;;;20.54;60.80;101306.00;5035446;28;20032;-81
2021/06/17 05:50:06;;;;;;;5.25;2.97;;;;;;;20.65;60.09;101315.31;5035653;28;20040;-82
2021/06/17 05:52:31;;;;;;;6.00;2.97;;;;;;;20.68;60.80;101314.91;5035875;28;20399;-80
2021/06/17 05:54:57;;;;;;;9.32;3.40;;;;;;;20.71;61.19;101316.34;5051137;28;20029;-80
2021/06/17 05:57:22;;;;;;;3.90;3.20;;;;;;;20.92;59.42;101310.06;5036194;28;20061;-78
2021/06/17 05:59:48;;;;;;;6.35;3.00;;;;;;;20.96;60.21;101316.63;5036246;28;20060;-79
2021/06/17 06:02:14;;;;;;;8.65;3.00;;;;;;;21.05;59.95;101318.09;5054136;28;20086;-80
2021/06/17 06:04:39;;;;;;;8.85;3.40;;;;;;;21.12;60.63;101312.78;5052720;28;20059;-81
2021/06/17 06:07:05;;;;;;;5.10;3.05;;;;;;;21.20;59.53;101310.72;5052870;28;20067;-81
2021/06/17 06:09:30;;;;;;;4.15;3.17;;;;;;;21.36;59.70;101314.88;5022221;28;20036;-81
2021/06/17 06:11:56;;;;;;;7.82;3.28;;;;;;;21.49;58.46;101321.25;5052772;28;20067;-80
2021/06/17 06:14:21;;;;;;;9.23;3.40;;;;;;;21.56;58.72;101324.75;5069780;28;20037;-80
2021/06/17 06:16:47;;;;;;;6.05;2.92;;;;;;;21.61;58.75;101327.63;5034904;28;20441;-80
2021/06/17 06:19:13;;;;;;;7.60;3.47;;;;;;;21.63;58.89;101325.56;5050939;28;20033;-78
2021/06/17 06:21:38;;;;;;;4.93;3.22;;;;;;;21.69;59.11;101327.41;5017343;28;20064;-79
2021/06/17 06:24:05;;;;;;;5.95;3.70;;;;;;;21.80;59.34;101322.50;5029959;28;20036;-76
2021/06/17 06:26:33;;;;;;;9.60;3.72;;;;;;;21.89;58.83;101330.06;5050919;28;20032;-77
2021/06/17 06:28:59;;;;;;;8.90;4.00;;;;;;;21.96;59.56;101332.72;5020894;28;20072;-80
2021/06/17 06:31:24;;;;;;;5.85;3.60;;;;;;;21.98;59.10;101330.66;5033310;28;20458;-81
2021/06/17 06:33:50;;;;;;;9.18;4.00;;;;;;;22.07;59.82;101329.41;5034366;28;20479;-81
2021/06/17 06:36:15;;;;;;;5.88;3.63;;;;;;;22.28;58.80;101331.06;5033213;28;20045;-78
2021/06/17 06:38:41;;;;;;;4.28;3.15;;;;;;;22.40;57.79;101327.75;5049959;28;20021;-81
2021/06/17 06:41:06;;;;;;;7.32;3.90;;;;;;;22.44;56.91;101324.44;5031785;28;20076;-79
2021/06/17 06:43:32;;;;;;;4.07;3.13;;;;;;;22.44;56.59;101334.31;5050531;28;20041;-79
2021/06/17 06:45:57;;;;;;;8.77;3.70;;;;;;;22.50;56.91;101336.94;5051827;28;20075;-78
2021/06/17 06:48:23;;;;;;;8.48;4.25;;;;;;;22.52;57.16;101331.38;5017874;28;20029;-79
2021/06/17 06:50:48;;;;;;;7.50;3.55;;;;;;;22.60;57.52;101339.16;5014152;28;20392;-80
2021/06/17 06:53:14;;;;;;;8.32;3.72;;;;;;;22.78;57.91;101348.34;5030628;28;20113;-80
2021/06/17 06:55:40;;;;;;;6.57;3.30;;;;;;;22.85;56.76;101347.28;5014176;28;20033;-81
2021/06/17 06:58:05;;;;;;;6.80;3.75;;;;;;;22.98;56.55;101349.09;5015641;28;20037;-80
2021/06/17 07:00:32;;;;;;;5.05;3.72;;;;;;;23.00;55.80;101346.16;5033763;28;20069;-79
2021/06/17 07:02:58;;;;;;;4.30;3.42;;;;;;;23.08;56.04;101341.44;5027202;28;20090;-80
2021/06/17 07:05:24;;;;;;;8.60;4.10;;;;;;;23.37;56.28;101346.38;5006981;28;20036;-79
2021/06/17 07:07:49;;;;;;;6.57;4.07;;;;;;;23.48;57.25;101349.19;5026684;28;20542;-79
2021/06/17 07:10:14;;;;;;;6.57;3.65;;;;;;;23.59;55.64;101358.38;5019672;28;20061;-80
2021/06/17 07:12:40;;;;;;;7.60;3.55;;;;;;;23.68;54.82;101358.94;5045299;28;20506;-81
2021/06/17 07:15:06;;;;;;;9.13;4.18;;;;;;;23.69;54.91;101366.72;5050956;28;20121;-79
2021/06/17 07:17:32;;;;;;;12.45;3.88;;;;;;;23.64;55.25;101361.22;5017614;28;20525;-79
2021/06/17 07:19:57;;;;;;;7.22;3.90;;;;;;;23.65;55.27;101349.47;5017783;28;20128;-81
2021/06/17 07:22:24;;;;;;;10.85;4.28;;;;;;;23.77;55.41;101354.09;5033903;28;20029;-81
2021/06/17 07:24:49;;;;;;;7.93;3.92;;;;;;;23.86;54.84;101353.63;5041652;28;20120;-80
2021/06/17 07:27:15;;;;;;;7.88;4.00;;;;;;;24.00;54.59;101359.69;5016064;28;20184;-81
2021/06/17 07:29:40;;;;;;;8.77;3.40;;;;;;;24.07;55.50;101360.47;5033288;28;20084;-81
2021/06/17 07:32:08;;;;;;;7.13;3.55;;;;;;;24.31;55.57;101357.13;5036022;28;20041;-82
2021/06/17 07:34:35;;;;;;;8.50;3.80;;;;;;;24.51;54.93;101354.22;5012903;28;20052;-80
2021/06/17 07:37:00;;;;;;;7.30;3.80;;;;;;;24.57;55.47;101356.03;5046184;28;20040;-83
2021/06/17 07:39:26;;;;;;;9.68;4.43;;;;;;;24.71;53.79;101345.94;5042600;28;20118;-81
2021/06/17 07:41:51;;;;;;;12.15;3.97;;;;;;;24.79;54.60;101349.16;5037838;28;20036;-81
2021/06/17 07:44:17;;;;;;;6.68;4.30;;;;;;;24.86;53.72;101362.47;5038105;28;20041;-80
2021/06/17 07:46:43;;;;;;;8.80;4.28;;;;;;;24.87;54.10;101356.06;5017232;28;20056;-79
2021/06/17 07:49:08;;;;;;;14.60;3.78;;;;;;;25.02;53.76;101359.16;5039840;28;20029;-81
2021/06/17 07:51:34;;;;;;;12.27;4.43;;;;;;;25.20;53.43;101358.28;5015978;28;20026;-79
2021/06/17 07:54:00;;;;;;;11.30;3.90;;;;;;;25.28;53.24;101356.31;5044889;28;20081;-79
2021/06/17 07:56:30;;;;;;;10.57;4.13;;;;;;;25.47;53.69;101357.06;5031554;28;20041;-79
2021/06/17 07:58:57;;;;;;;11.07;4.43;;;;;;;25.58;53.00;101367.84;5016483;28;20037;-83
2021/06/17 08:01:23;;;;;;;5.07;4.05;;;;;;;25.69;53.83;101365.41;5042370;28;20025;-81
2021/06/17 08:03:50;;;;;;;14.55;4.47;;;;;;;25.74;53.31;101363.66;5035873;28;20033;-79
2021/06/17 08:06:16;;;;;;;9.68;4.38;;;;;;;25.77;53.67;101365.06;5017655;28;20040;-80
2021/06/17 08:08:42;;;;;;;9.48;4.60;;;;;;;25.84;53.81;101373.81;5049226;28;20059;-79
2021/06/17 08:11:09;;;;;;;8.77;4.53;;;;;;;25.98;51.75;101358.31;5080096;22;20064;-82
2021/06/17 08:13:34;;;;;;;11.38;4.32;;;;;;;26.10;53.46;101358.31;5081156;28;20832;-80
2021/06/17 08:16:00;;;;;;;16.45;4.10;;;;;;;26.20;51.95;101364.72;5079306;28;20048;-78
2021/06/17 08:18:25;;;;;;;8.25;4.55;;;;;;;26.34;51.98;101359.09;5081657;28;20113;-79
2021/06/17 08:20:54;;;;;;;12.20;4.65;;;;;;;26.27;51.62;101348.47;5062889;28;20036;-79
2021/06/17 08:23:21;;;;;;;12.63;4.10;;;;;;;26.44;52.07;101361.19;5047962;28;20135;-78
2021/06/17 08:25:49;;;;;;;8.02;3.95;;;;;;;26.65;51.80;101355.16;5030017;28;20060;-81
2021/06/17 08:28:14;;;;;;;12.52;4.93;;;;;;;26.76;51.88;101359.69;5051683;28;20064;-81
2021/06/17 08:30:40;;;;;;;8.02;3.92;;;;;;;26.96;51.03;101353.06;5065245;28;20534;-78
2021/06/17 08:33:05;;;;;;;10.85;4.82;;;;;;;27.16;51.02;101353.44;5049130;28;20040;-80
2021/06/17 08:35:31;;;;;;;8.18;4.35;;;;;;;27.08;50.43;101342.25;5072871;28;20032;-82
2021/06/17 08:37:57;;;;;;;10.77;4.45;;;;;;;27.07;51.34;101337.91;5087939;28;20039;-80
2021/06/17 08:40:25;;;;;;;5.78;4.18;;;;;;;27.35;52.01;101342.44;5063953;28;20119;-81
2021/06/17 08:42:51;;;;;;;8.20;4.88;;;;;;;27.57;51.76;101340.66;5064388;28;20860;-82
2021/06/17 08:45:17;;;;;;;6.50;4.70;;;;;;;27.63;51.07;101344.25;5079067;28;20032;-80
2021/06/17 08:47:42;;;;;;;6.03;4.60;;;;;;;27.75;50.73;101344.97;5065593;28;20036;-79
2021/06/17 08:50:12;;;;;;;7.72;4.75;;;;;;;27.73;49.97;101347.13;5069626;28;20042;-83
2021/06/17 08:52:41;;;;;;;7.57;4.90;;;;;;;27.77;49.47;101334.78;5092362;28;20035;-81
2021/06/17 08:55:25;;;;;;;7.78;4.60;;;;;;;27.72;50.21;101334.69;5075398;28;20573;-80
2021/06/17 08:57:52;;;;;;;5.72;4.13;;;;;;;27.72;51.33;101331.19;5058878;28;20046;-81
